Airfield :
LOGIN :

Register | Disclaimer

   EN    FR    IT 

 










Legend :    VFR   Marginal VFR   IFR   Intensive IFR   Very Intensive IFR
Visi :
Ceiling :
>= 8 km
>= 3000ft
5 to 8 km
1000 to 3000 ft
1500m to 5 km
500 to 1000 ft
800 to 1500m
200 to 500 ft
< 800m
< 200 ft
Symbols :   Thunderstorms  Fog  Heavy snow  Heavy precipitations  Wind > 20 kt
SIGMETs :     Misc.  Thunderstorms  Icing  Turbulence  Mountain Waves  Volcanic Ashes







- Airport Elevation : 202 ft
- IATA code : LGW
- Download approach charts


EGKK - London Gatwick

CURRENT METAR :
  • 151420Z 05005KT 360V110 7000 BKN005 15/15 Q1011

EXPIRED METARs :
  • 151350Z 04004KT 7000 BKN005 15/15 Q1011
  • 151320Z 02005KT 340V130 6000 BKN004 15/15 Q1011
  • 151250Z 05005KT 5000 BR OVC004 15/15 Q1011
  • 151220Z 04005KT 360V070 5000 BR OVC004 15/14 Q1011
  • 151150Z 06005KT 020V090 4500 -RA BR OVC004 15/14 Q1010

TAF AMD TAF EGKK
Valid from the 15 at 12:00 until the 16 at 18:00 UTC


151205Z 1512/1618 06008KT 9999 BKN010
TEMPO 1512/1516 3000 -RA BKN004
BECMG 1516/1519 5000 BR SCT010
PROB40 1516/1524 1200 BKN002
PROB40 1600/1609 0300 FG VV///
BECMG 1603/1606 14010KT
BECMG 1609/1612 9999 NSW
TEMPO 1609/1618 BKN008
No reported NOTAMs for that airfield.
1 SIGMET reported for the London FIR (EGTT) :
 
Severe turbulence
EGTT SIGMET 04 VALID 151149/151530 EGRR
EGTT LONDON FIR SEV TURB FCST W OF LINE N5500 W00332 - N4957 W00215 FL240/350 MOV E 20KT WKN=



MET'MAP, your aeronautical weather chart ! - Copyright ORBIFLY December 2007 - Disclaimer

ORBIFLY MET'MAP TEAM :

Programming & Development : Alexandra Zaïnal
Concept & Development : Baudouin d'Aumeries
Co-Development & Prog : Marc-Olivier Méhu
Technical & hardware support : Manuel Goepfert

Contact : metmap@orbifly.com




SOURCES & CREDITS :

   NOAA